sensor_id;sensor_type;location;lat;lon;timestamp;P1;durP1;ratioP1;P2;durP2;ratioP2
3257;SDS011;1641;51.306;12.384;2024-02-04T00:01:04;7.65;;;5.00;;
3257;SDS011;1641;51.306;12.384;2024-02-04T00:03:30;8.05;;;5.75;;
3257;SDS011;1641;51.306;12.384;2024-02-04T00:05:55;7.18;;;5.65;;
3257;SDS011;1641;51.306;12.384;2024-02-04T00:08:20;8.52;;;5.88;;
3257;SDS011;1641;51.306;12.384;2024-02-04T00:10:46;9.38;;;5.88;;
3257;SDS011;1641;51.306;12.384;2024-02-04T00:13:14;6.95;;;5.88;;
3257;SDS011;1641;51.306;12.384;2024-02-04T00:15:39;6.85;;;5.63;;
3257;SDS011;1641;51.306;12.384;2024-02-04T00:18:05;9.20;;;6.13;;
3257;SDS011;1641;51.306;12.384;2024-02-04T00:20:31;7.25;;;5.65;;
3257;SDS011;1641;51.306;12.384;2024-02-04T00:23:00;8.10;;;6.00;;
3257;SDS011;1641;51.306;12.384;2024-02-04T00:25:25;14.25;;;6.95;;
3257;SDS011;1641;51.306;12.384;2024-02-04T00:27:51;6.88;;;5.90;;
3257;SDS011;1641;51.306;12.384;2024-02-04T00:30:16;10.98;;;8.13;;
3257;SDS011;1641;51.306;12.384;2024-02-04T00:32:41;6.10;;;5.18;;
3257;SDS011;1641;51.306;12.384;2024-02-04T00:35:06;6.05;;;5.45;;
3257;SDS011;1641;51.306;12.384;2024-02-04T00:37:32;10.38;;;6.53;;
3257;SDS011;1641;51.306;12.384;2024-02-04T00:39:57;11.63;;;8.15;;
3257;SDS011;1641;51.306;12.384;2024-02-04T00:42:22;8.68;;;6.05;;
3257;SDS011;1641;51.306;12.384;2024-02-04T00:44:48;7.32;;;6.47;;
3257;SDS011;1641;51.306;12.384;2024-02-04T00:47:13;10.60;;;7.55;;
3257;SDS011;1641;51.306;12.384;2024-02-04T00:49:38;9.77;;;6.15;;
3257;SDS011;1641;51.306;12.384;2024-02-04T00:52:04;8.13;;;6.20;;
3257;SDS011;1641;51.306;12.384;2024-02-04T00:54:29;9.38;;;6.13;;
3257;SDS011;1641;51.306;12.384;2024-02-04T00:56:54;8.07;;;6.47;;
3257;SDS011;1641;51.306;12.384;2024-02-04T00:59:20;8.70;;;6.93;;
3257;SDS011;1641;51.306;12.384;2024-02-04T01:01:45;9.38;;;6.93;;
3257;SDS011;1641;51.306;12.384;2024-02-04T01:04:10;9.13;;;7.07;;
3257;SDS011;1641;51.306;12.384;2024-02-04T01:06:36;10.82;;;7.30;;
3257;SDS011;1641;51.306;12.384;2024-02-04T01:09:02;10.52;;;7.05;;
3257;SDS011;1641;51.306;12.384;2024-02-04T01:11:27;11.20;;;7.10;;
3257;SDS011;1641;51.306;12.384;2024-02-04T01:13:54;14.93;;;8.80;;
3257;SDS011;1641;51.306;12.384;2024-02-04T01:16:19;11.27;;;7.03;;
3257;SDS011;1641;51.306;12.384;2024-02-04T01:18:45;10.40;;;6.90;;
3257;SDS011;1641;51.306;12.384;2024-02-04T01:21:10;8.77;;;6.60;;
3257;SDS011;1641;51.306;12.384;2024-02-04T01:23:35;8.73;;;6.63;;
3257;SDS011;1641;51.306;12.384;2024-02-04T01:26:00;10.13;;;6.47;;
3257;SDS011;1641;51.306;12.384;2024-02-04T01:28:25;13.00;;;6.50;;
3257;SDS011;1641;51.306;12.384;2024-02-04T01:30:51;20.73;;;11.98;;
3257;SDS011;1641;51.306;12.384;2024-02-04T01:33:16;8.98;;;5.95;;
3257;SDS011;1641;51.306;12.384;2024-02-04T01:35:41;28.45;;;14.45;;
3257;SDS011;1641;51.306;12.384;2024-02-04T01:38:07;13.73;;;5.82;;
3257;SDS011;1641;51.306;12.384;2024-02-04T01:40:32;12.77;;;9.25;;
3257;SDS011;1641;51.306;12.384;2024-02-04T01:42:57;8.50;;;6.07;;
3257;SDS011;1641;51.306;12.384;2024-02-04T01:45:23;10.18;;;6.80;;
3257;SDS011;1641;51.306;12.384;2024-02-04T01:47:49;7.18;;;5.30;;
3257;SDS011;1641;51.306;12.384;2024-02-04T01:50:15;15.73;;;8.45;;
3257;SDS011;1641;51.306;12.384;2024-02-04T01:52:41;8.82;;;5.85;;
3257;SDS011;1641;51.306;12.384;2024-02-04T01:55:07;7.50;;;5.40;;
3257;SDS011;1641;51.306;12.384;2024-02-04T01:57:33;7.30;;;4.95;;
3257;SDS011;1641;51.306;12.384;2024-02-04T01:59:59;8.80;;;5.57;;
3257;SDS011;1641;51.306;12.384;2024-02-04T02:02:25;9.50;;;6.32;;
3257;SDS011;1641;51.306;12.384;2024-02-04T02:04:50;13.25;;;7.55;;
3257;SDS011;1641;51.306;12.384;2024-02-04T02:07:16;10.57;;;6.75;;
3257;SDS011;1641;51.306;12.384;2024-02-04T02:09:45;11.57;;;8.18;;
3257;SDS011;1641;51.306;12.384;2024-02-04T02:12:22;11.85;;;7.40;;
3257;SDS011;1641;51.306;12.384;2024-02-04T02:14:53;12.15;;;8.52;;
3257;SDS011;1641;51.306;12.384;2024-02-04T02:17:25;16.83;;;8.25;;
3257;SDS011;1641;51.306;12.384;2024-02-04T02:20:05;13.13;;;8.65;;
3257;SDS011;1641;51.306;12.384;2024-02-04T02:22:47;14.48;;;9.35;;
3257;SDS011;1641;51.306;12.384;2024-02-04T02:25:14;14.10;;;8.82;;
3257;SDS011;1641;51.306;12.384;2024-02-04T02:27:48;13.55;;;9.15;;
3257;SDS011;1641;51.306;12.384;2024-02-04T02:30:14;14.90;;;9.15;;
3257;SDS011;1641;51.306;12.384;2024-02-04T02:32:41;13.75;;;7.82;;
3257;SDS011;1641;51.306;12.384;2024-02-04T02:35:07;11.73;;;8.77;;
3257;SDS011;1641;51.306;12.384;2024-02-04T02:37:36;14.55;;;9.00;;
3257;SDS011;1641;51.306;12.384;2024-02-04T02:40:09;13.80;;;7.30;;
3257;SDS011;1641;51.306;12.384;2024-02-04T02:42:44;12.75;;;6.97;;
3257;SDS011;1641;51.306;12.384;2024-02-04T02:45:11;9.30;;;6.45;;
3257;SDS011;1641;51.306;12.384;2024-02-04T02:47:38;11.32;;;6.95;;
3257;SDS011;1641;51.306;12.384;2024-02-04T02:50:05;8.27;;;6.43;;
3257;SDS011;1641;51.306;12.384;2024-02-04T02:52:31;19.60;;;11.73;;
3257;SDS011;1641;51.306;12.384;2024-02-04T02:54:57;11.18;;;6.80;;
3257;SDS011;1641;51.306;12.384;2024-02-04T02:57:22;9.52;;;6.00;;
3257;SDS011;1641;51.306;12.384;2024-02-04T02:59:47;10.10;;;6.07;;
3257;SDS011;1641;51.306;12.384;2024-02-04T03:02:13;10.82;;;6.25;;
3257;SDS011;1641;51.306;12.384;2024-02-04T03:04:38;8.25;;;5.80;;
3257;SDS011;1641;51.306;12.384;2024-02-04T03:07:04;13.25;;;6.65;;
3257;SDS011;1641;51.306;12.384;2024-02-04T03:09:29;9.38;;;5.75;;
3257;SDS011;1641;51.306;12.384;2024-02-04T03:11:54;11.85;;;6.63;;
3257;SDS011;1641;51.306;12.384;2024-02-04T03:14:20;7.90;;;5.88;;
3257;SDS011;1641;51.306;12.384;2024-02-04T03:16:45;9.55;;;5.38;;
3257;SDS011;1641;51.306;12.384;2024-02-04T03:19:11;8.50;;;5.35;;
3257;SDS011;1641;51.306;12.384;2024-02-04T03:21:39;9.57;;;4.78;;
3257;SDS011;1641;51.306;12.384;2024-02-04T03:24:04;7.22;;;5.03;;
3257;SDS011;1641;51.306;12.384;2024-02-04T03:26:30;9.35;;;5.38;;
3257;SDS011;1641;51.306;12.384;2024-02-04T03:28:55;9.95;;;6.03;;
3257;SDS011;1641;51.306;12.384;2024-02-04T03:31:21;8.60;;;5.53;;
3257;SDS011;1641;51.306;12.384;2024-02-04T03:33:47;8.30;;;4.50;;
3257;SDS011;1641;51.306;12.384;2024-02-04T03:36:15;7.05;;;5.82;;
3257;SDS011;1641;51.306;12.384;2024-02-04T03:38:43;8.55;;;4.55;;
3257;SDS011;1641;51.306;12.384;2024-02-04T03:41:08;9.82;;;4.38;;
3257;SDS011;1641;51.306;12.384;2024-02-04T03:43:35;10.25;;;5.20;;
3257;SDS011;1641;51.306;12.384;2024-02-04T03:46:01;5.70;;;4.03;;
3257;SDS011;1641;51.306;12.384;2024-02-04T03:48:26;6.97;;;5.13;;
3257;SDS011;1641;51.306;12.384;2024-02-04T03:50:52;7.43;;;5.28;;
3257;SDS011;1641;51.306;12.384;2024-02-04T03:53:20;8.88;;;5.28;;
3257;SDS011;1641;51.306;12.384;2024-02-04T03:55:48;8.95;;;4.30;;
3257;SDS011;1641;51.306;12.384;2024-02-04T03:58:16;7.03;;;4.63;;
3257;SDS011;1641;51.306;12.384;2024-02-04T04:00:48;7.88;;;4.82;;
3257;SDS011;1641;51.306;12.384;2024-02-04T04:03:13;7.10;;;4.82;;
3257;SDS011;1641;51.306;12.384;2024-02-04T04:05:41;6.80;;;4.38;;
3257;SDS011;1641;51.306;12.384;2024-02-04T04:08:06;7.03;;;4.75;;
3257;SDS011;1641;51.306;12.384;2024-02-04T04:10:32;10.82;;;4.70;;
3257;SDS011;1641;51.306;12.384;2024-02-04T04:12:57;30.67;;;15.63;;
3257;SDS011;1641;51.306;12.384;2024-02-04T04:15:22;13.02;;;5.78;;
3257;SDS011;1641;51.306;12.384;2024-02-04T04:17:50;10.77;;;4.63;;
3257;SDS011;1641;51.306;12.384;2024-02-04T04:20:18;8.25;;;4.47;;
3257;SDS011;1641;51.306;12.384;2024-02-04T04:22:44;9.63;;;5.43;;
3257;SDS011;1641;51.306;12.384;2024-02-04T04:25:09;6.72;;;5.10;;
3257;SDS011;1641;51.306;12.384;2024-02-04T04:27:34;6.60;;;4.68;;
3257;SDS011;1641;51.306;12.384;2024-02-04T04:29:59;12.95;;;5.57;;
3257;SDS011;1641;51.306;12.384;2024-02-04T04:32:28;11.88;;;5.97;;
3257;SDS011;1641;51.306;12.384;2024-02-04T04:34:53;8.43;;;5.70;;
3257;SDS011;1641;51.306;12.384;2024-02-04T04:37:20;9.93;;;6.32;;
3257;SDS011;1641;51.306;12.384;2024-02-04T04:39:45;9.10;;;6.20;;
3257;SDS011;1641;51.306;12.384;2024-02-04T04:42:11;9.80;;;5.93;;
3257;SDS011;1641;51.306;12.384;2024-02-04T04:44:36;13.13;;;6.40;;
3257;SDS011;1641;51.306;12.384;2024-02-04T04:47:01;10.30;;;6.18;;
3257;SDS011;1641;51.306;12.384;2024-02-04T04:49:26;12.55;;;8.35;;
3257;SDS011;1641;51.306;12.384;2024-02-04T04:51:55;16.35;;;8.38;;
3257;SDS011;1641;51.306;12.384;2024-02-04T04:54:20;7.88;;;5.25;;
3257;SDS011;1641;51.306;12.384;2024-02-04T04:56:48;8.38;;;5.78;;
3257;SDS011;1641;51.306;12.384;2024-02-04T04:59:15;6.85;;;4.97;;
3257;SDS011;1641;51.306;12.384;2024-02-04T05:01:47;8.65;;;5.32;;
3257;SDS011;1641;51.306;12.384;2024-02-04T05:04:13;7.35;;;4.75;;
3257;SDS011;1641;51.306;12.384;2024-02-04T05:06:42;6.28;;;4.25;;
3257;SDS011;1641;51.306;12.384;2024-02-04T05:09:07;4.90;;;3.70;;
3257;SDS011;1641;51.306;12.384;2024-02-04T05:11:32;9.32;;;4.20;;
3257;SDS011;1641;51.306;12.384;2024-02-04T05:13:58;5.10;;;3.25;;
3257;SDS011;1641;51.306;12.384;2024-02-04T05:16:23;6.65;;;4.07;;
3257;SDS011;1641;51.306;12.384;2024-02-04T05:18:48;6.40;;;3.55;;
3257;SDS011;1641;51.306;12.384;2024-02-04T05:21:14;6.82;;;4.43;;
3257;SDS011;1641;51.306;12.384;2024-02-04T05:23:39;6.88;;;3.95;;
3257;SDS011;1641;51.306;12.384;2024-02-04T05:26:04;6.35;;;4.28;;
3257;SDS011;1641;51.306;12.384;2024-02-04T05:28:30;7.28;;;4.38;;
3257;SDS011;1641;51.306;12.384;2024-02-04T05:30:55;6.93;;;4.85;;
3257;SDS011;1641;51.306;12.384;2024-02-04T05:33:21;6.18;;;4.57;;
3257;SDS011;1641;51.306;12.384;2024-02-04T05:35:46;7.60;;;4.95;;
3257;SDS011;1641;51.306;12.384;2024-02-04T05:38:12;7.90;;;5.28;;
3257;SDS011;1641;51.306;12.384;2024-02-04T05:40:37;7.72;;;5.72;;
3257;SDS011;1641;51.306;12.384;2024-02-04T05:43:02;7.78;;;5.47;;
3257;SDS011;1641;51.306;12.384;2024-02-04T05:45:32;15.48;;;5.53;;
3257;SDS011;1641;51.306;12.384;2024-02-04T05:47:58;8.07;;;5.55;;
3257;SDS011;1641;51.306;12.384;2024-02-04T05:50:23;8.90;;;5.70;;
3257;SDS011;1641;51.306;12.384;2024-02-04T05:52:48;8.20;;;6.18;;
3257;SDS011;1641;51.306;12.384;2024-02-04T05:55:14;7.97;;;5.32;;
3257;SDS011;1641;51.306;12.384;2024-02-04T05:57:39;9.65;;;6.65;;
3257;SDS011;1641;51.306;12.384;2024-02-04T06:00:05;8.43;;;6.13;;
3257;SDS011;1641;51.306;12.384;2024-02-04T06:02:31;8.48;;;6.10;;
3257;SDS011;1641;51.306;12.384;2024-02-04T06:04:56;9.52;;;5.85;;
3257;SDS011;1641;51.306;12.384;2024-02-04T06:07:22;8.45;;;5.50;;
3257;SDS011;1641;51.306;12.384;2024-02-04T06:09:47;10.40;;;6.80;;
3257;SDS011;1641;51.306;12.384;2024-02-04T06:12:12;7.55;;;5.75;;
3257;SDS011;1641;51.306;12.384;2024-02-04T06:14:37;6.78;;;5.15;;
3257;SDS011;1641;51.306;12.384;2024-02-04T06:17:04;7.75;;;5.45;;
3257;SDS011;1641;51.306;12.384;2024-02-04T06:19:30;5.53;;;4.40;;
3257;SDS011;1641;51.306;12.384;2024-02-04T06:21:55;9.95;;;5.15;;
3257;SDS011;1641;51.306;12.384;2024-02-04T06:24:21;6.45;;;4.20;;
3257;SDS011;1641;51.306;12.384;2024-02-04T06:26:46;4.80;;;3.90;;
3257;SDS011;1641;51.306;12.384;2024-02-04T06:29:11;4.50;;;3.85;;
3257;SDS011;1641;51.306;12.384;2024-02-04T06:31:37;5.00;;;3.50;;
3257;SDS011;1641;51.306;12.384;2024-02-04T06:34:02;3.53;;;2.92;;
3257;SDS011;1641;51.306;12.384;2024-02-04T06:36:27;6.07;;;2.80;;
3257;SDS011;1641;51.306;12.384;2024-02-04T06:38:53;3.47;;;2.95;;
3257;SDS011;1641;51.306;12.384;2024-02-04T06:41:18;4.75;;;2.83;;
3257;SDS011;1641;51.306;12.384;2024-02-04T06:43:43;2.92;;;2.35;;
3257;SDS011;1641;51.306;12.384;2024-02-04T06:46:09;4.10;;;2.10;;
3257;SDS011;1641;51.306;12.384;2024-02-04T06:48:34;2.67;;;2.08;;
3257;SDS011;1641;51.306;12.384;2024-02-04T06:50:59;1.80;;;1.70;;
3257;SDS011;1641;51.306;12.384;2024-02-04T06:53:25;34.67;;;17.13;;
3257;SDS011;1641;51.306;12.384;2024-02-04T06:55:50;4.43;;;3.25;;
3257;SDS011;1641;51.306;12.384;2024-02-04T06:58:16;3.53;;;1.67;;
3257;SDS011;1641;51.306;12.384;2024-02-04T07:00:41;2.03;;;1.42;;
3257;SDS011;1641;51.306;12.384;2024-02-04T07:03:06;1.38;;;1.27;;
3257;SDS011;1641;51.306;12.384;2024-02-04T07:05:31;1.88;;;1.45;;
3257;SDS011;1641;51.306;12.384;2024-02-04T07:07:58;1.75;;;1.63;;
3257;SDS011;1641;51.306;12.384;2024-02-04T07:10:23;1.63;;;1.50;;
3257;SDS011;1641;51.306;12.384;2024-02-04T07:12:49;1.48;;;1.35;;
3257;SDS011;1641;51.306;12.384;2024-02-04T07:15:14;2.00;;;1.40;;
3257;SDS011;1641;51.306;12.384;2024-02-04T07:17:39;2.00;;;1.70;;
3257;SDS011;1641;51.306;12.384;2024-02-04T07:20:04;1.65;;;1.38;;
3257;SDS011;1641;51.306;12.384;2024-02-04T07:22:30;2.22;;;1.52;;
3257;SDS011;1641;51.306;12.384;2024-02-04T07:24:56;1.60;;;1.50;;
3257;SDS011;1641;51.306;12.384;2024-02-04T07:27:21;1.83;;;1.70;;
3257;SDS011;1641;51.306;12.384;2024-02-04T07:29:47;1.45;;;1.25;;
3257;SDS011;1641;51.306;12.384;2024-02-04T07:32:13;1.40;;;1.30;;
3257;SDS011;1641;51.306;12.384;2024-02-04T07:34:39;1.30;;;1.20;;
3257;SDS011;1641;51.306;12.384;2024-02-04T07:37:05;1.23;;;1.13;;
3257;SDS011;1641;51.306;12.384;2024-02-04T07:39:33;2.30;;;1.73;;
3257;SDS011;1641;51.306;12.384;2024-02-04T07:42:01;1.30;;;1.20;;
3257;SDS011;1641;51.306;12.384;2024-02-04T07:44:27;1.38;;;1.27;;
3257;SDS011;1641;51.306;12.384;2024-02-04T07:47:08;2.97;;;1.63;;
3257;SDS011;1641;51.306;12.384;2024-02-04T07:49:48;1.55;;;1.40;;
3257;SDS011;1641;51.306;12.384;2024-02-04T07:52:16;1.23;;;1.13;;
3257;SDS011;1641;51.306;12.384;2024-02-04T07:54:44;1.52;;;1.38;;
3257;SDS011;1641;51.306;12.384;2024-02-04T07:57:19;1.20;;;1.10;;
3257;SDS011;1641;51.306;12.384;2024-02-04T07:59:44;1.08;;;0.98;;
3257;SDS011;1641;51.306;12.384;2024-02-04T08:02:09;1.00;;;1.00;;
3257;SDS011;1641;51.306;12.384;2024-02-04T08:04:34;1.45;;;1.10;;
3257;SDS011;1641;51.306;12.384;2024-02-04T08:07:02;1.55;;;1.20;;
3257;SDS011;1641;51.306;12.384;2024-02-04T08:09:28;1.30;;;1.00;;
3257;SDS011;1641;51.306;12.384;2024-02-04T08:11:53;1.23;;;1.13;;
3257;SDS011;1641;51.306;12.384;2024-02-04T08:14:18;1.20;;;1.10;;
3257;SDS011;1641;51.306;12.384;2024-02-04T08:16:46;1.05;;;0.80;;
3257;SDS011;1641;51.306;12.384;2024-02-04T08:19:13;0.95;;;0.75;;
3257;SDS011;1641;51.306;12.384;2024-02-04T08:21:38;0.82;;;0.82;;
3257;SDS011;1641;51.306;12.384;2024-02-04T08:24:06;1.17;;;0.82;;
3257;SDS011;1641;51.306;12.384;2024-02-04T08:26:34;0.50;;;0.50;;
3257;SDS011;1641;51.306;12.384;2024-02-04T08:28:59;0.80;;;0.80;;
3257;SDS011;1641;51.306;12.384;2024-02-04T08:31:27;2.33;;;0.70;;
3257;SDS011;1641;51.306;12.384;2024-02-04T08:33:52;0.65;;;0.65;;
3257;SDS011;1641;51.306;12.384;2024-02-04T08:36:20;1.52;;;0.85;;
3257;SDS011;1641;51.306;12.384;2024-02-04T08:38:48;2.35;;;0.95;;
3257;SDS011;1641;51.306;12.384;2024-02-04T08:41:13;1.00;;;1.00;;
3257;SDS011;1641;51.306;12.384;2024-02-04T08:43:39;1.20;;;1.10;;
3257;SDS011;1641;51.306;12.384;2024-02-04T08:46:04;1.73;;;1.10;;
3257;SDS011;1641;51.306;12.384;2024-02-04T08:48:30;2.05;;;1.20;;
3257;SDS011;1641;51.306;12.384;2024-02-04T08:50:58;1.27;;;0.95;;
3257;SDS011;1641;51.306;12.384;2024-02-04T08:53:24;0.73;;;0.73;;
3257;SDS011;1641;51.306;12.384;2024-02-04T08:55:52;0.85;;;0.85;;
3257;SDS011;1641;51.306;12.384;2024-02-04T08:58:17;1.10;;;0.98;;
3257;SDS011;1641;51.306;12.384;2024-02-04T09:00:42;1.00;;;0.90;;
3257;SDS011;1641;51.306;12.384;2024-02-04T09:03:07;2.28;;;1.20;;
3257;SDS011;1641;51.306;12.384;2024-02-04T09:05:33;1.75;;;1.17;;
3257;SDS011;1641;51.306;12.384;2024-02-04T09:07:58;1.15;;;1.00;;
3257;SDS011;1641;51.306;12.384;2024-02-04T09:10:23;2.08;;;1.20;;
3257;SDS011;1641;51.306;12.384;2024-02-04T09:12:48;2.22;;;1.70;;
3257;SDS011;1641;51.306;12.384;2024-02-04T09:15:14;2.13;;;1.60;;
3257;SDS011;1641;51.306;12.384;2024-02-04T09:17:39;1.70;;;1.60;;
3257;SDS011;1641;51.306;12.384;2024-02-04T09:20:07;1.40;;;1.30;;
3257;SDS011;1641;51.306;12.384;2024-02-04T09:22:33;0.77;;;0.77;;
3257;SDS011;1641;51.306;12.384;2024-02-04T09:24:58;1.38;;;1.02;;
3257;SDS011;1641;51.306;12.384;2024-02-04T09:27:26;3.30;;;1.38;;
3257;SDS011;1641;51.306;12.384;2024-02-04T09:29:52;1.52;;;1.25;;
3257;SDS011;1641;51.306;12.384;2024-02-04T09:32:21;4.30;;;2.40;;
3257;SDS011;1641;51.306;12.384;2024-02-04T09:34:46;1.73;;;1.40;;
3257;SDS011;1641;51.306;12.384;2024-02-04T09:37:13;2.50;;;1.65;;
3257;SDS011;1641;51.306;12.384;2024-02-04T09:39:39;2.63;;;1.92;;
3257;SDS011;1641;51.306;12.384;2024-02-04T09:42:04;3.30;;;2.15;;
3257;SDS011;1641;51.306;12.384;2024-02-04T09:44:29;12.23;;;7.05;;
3257;SDS011;1641;51.306;12.384;2024-02-04T09:46:57;4.60;;;2.92;;
3257;SDS011;1641;51.306;12.384;2024-02-04T09:49:24;4.18;;;2.30;;
3257;SDS011;1641;51.306;12.384;2024-02-04T09:51:51;5.28;;;2.75;;
3257;SDS011;1641;51.306;12.384;2024-02-04T09:54:16;4.53;;;3.35;;
3257;SDS011;1641;51.306;12.384;2024-02-04T09:56:45;4.88;;;3.80;;
3257;SDS011;1641;51.306;12.384;2024-02-04T09:59:14;4.22;;;3.60;;
3257;SDS011;1641;51.306;12.384;2024-02-04T10:01:40;4.90;;;3.35;;
3257;SDS011;1641;51.306;12.384;2024-02-04T10:04:06;6.05;;;3.58;;
3257;SDS011;1641;51.306;12.384;2024-02-04T10:06:31;8.95;;;4.03;;
3257;SDS011;1641;51.306;12.384;2024-02-04T10:08:57;7.15;;;4.22;;
3257;SDS011;1641;51.306;12.384;2024-02-04T10:11:22;5.30;;;4.13;;
3257;SDS011;1641;51.306;12.384;2024-02-04T10:13:48;6.78;;;4.70;;
3257;SDS011;1641;51.306;12.384;2024-02-04T10:16:14;7.63;;;4.30;;
3257;SDS011;1641;51.306;12.384;2024-02-04T10:18:41;8.65;;;6.38;;
3257;SDS011;1641;51.306;12.384;2024-02-04T10:23:51;6.72;;;4.57;;
3257;SDS011;1641;51.306;12.384;2024-02-04T10:26:17;6.13;;;4.63;;
3257;SDS011;1641;51.306;12.384;2024-02-04T10:28:45;4.50;;;3.35;;
3257;SDS011;1641;51.306;12.384;2024-02-04T10:31:12;5.70;;;3.53;;
3257;SDS011;1641;51.306;12.384;2024-02-04T10:33:37;5.93;;;3.65;;
3257;SDS011;1641;51.306;12.384;2024-02-04T10:36:03;4.93;;;2.58;;
3257;SDS011;1641;51.306;12.384;2024-02-04T10:38:30;4.00;;;2.20;;
3257;SDS011;1641;51.306;12.384;2024-02-04T10:41:02;3.53;;;2.63;;
3257;SDS011;1641;51.306;12.384;2024-02-04T10:46:20;3.55;;;2.22;;
3257;SDS011;1641;51.306;12.384;2024-02-04T10:48:57;2.90;;;1.88;;
3257;SDS011;1641;51.306;12.384;2024-02-04T10:51:26;2.40;;;2.20;;
3257;SDS011;1641;51.306;12.384;2024-02-04T10:53:58;3.42;;;2.33;;
3257;SDS011;1641;51.306;12.384;2024-02-04T10:56:33;6.85;;;2.25;;
3257;SDS011;1641;51.306;12.384;2024-02-04T10:59:09;4.55;;;2.53;;
3257;SDS011;1641;51.306;12.384;2024-02-04T11:01:43;5.03;;;3.10;;
3257;SDS011;1641;51.306;12.384;2024-02-04T11:04:13;3.80;;;3.10;;
3257;SDS011;1641;51.306;12.384;2024-02-04T11:06:42;3.50;;;2.75;;
3257;SDS011;1641;51.306;12.384;2024-02-04T11:09:09;4.55;;;3.53;;
3257;SDS011;1641;51.306;12.384;2024-02-04T11:11:36;6.75;;;3.55;;
3257;SDS011;1641;51.306;12.384;2024-02-04T11:14:04;4.32;;;3.75;;
3257;SDS011;1641;51.306;12.384;2024-02-04T11:17:24;6.53;;;3.88;;
3257;SDS011;1641;51.306;12.384;2024-02-04T11:22:35;5.22;;;4.28;;
3257;SDS011;1641;51.306;12.384;2024-02-04T11:25:19;6.18;;;4.00;;
3257;SDS011;1641;51.306;12.384;2024-02-04T11:28:05;6.85;;;4.78;;
3257;SDS011;1641;51.306;12.384;2024-02-04T11:30:34;6.13;;;4.38;;
3257;SDS011;1641;51.306;12.384;2024-02-04T11:33:01;4.63;;;3.97;;
3257;SDS011;1641;51.306;12.384;2024-02-04T11:35:32;3.97;;;3.45;;
3257;SDS011;1641;51.306;12.384;2024-02-04T11:38:02;5.05;;;4.55;;
3257;SDS011;1641;51.306;12.384;2024-02-04T11:40:33;5.85;;;3.47;;
3257;SDS011;1641;51.306;12.384;2024-02-04T11:43:06;5.18;;;3.63;;
3257;SDS011;1641;51.306;12.384;2024-02-04T11:45:32;6.93;;;3.67;;
3257;SDS011;1641;51.306;12.384;2024-02-04T11:48:01;3.97;;;3.58;;
3257;SDS011;1641;51.306;12.384;2024-02-04T11:50:30;4.63;;;3.97;;
3257;SDS011;1641;51.306;12.384;2024-02-04T11:55:40;4.40;;;3.53;;
3257;SDS011;1641;51.306;12.384;2024-02-04T11:58:14;5.13;;;3.92;;
3257;SDS011;1641;51.306;12.384;2024-02-04T12:00:42;5.22;;;3.72;;
3257;SDS011;1641;51.306;12.384;2024-02-04T12:03:10;4.32;;;3.85;;
3257;SDS011;1641;51.306;12.384;2024-02-04T12:05:36;6.95;;;3.35;;
3257;SDS011;1641;51.306;12.384;2024-02-04T12:08:05;5.03;;;3.67;;
3257;SDS011;1641;51.306;12.384;2024-02-04T12:10:43;5.18;;;3.53;;
3257;SDS011;1641;51.306;12.384;2024-02-04T12:13:09;4.38;;;3.45;;
3257;SDS011;1641;51.306;12.384;2024-02-04T12:15:37;4.57;;;3.50;;
3257;SDS011;1641;51.306;12.384;2024-02-04T12:18:07;3.45;;;3.15;;
3257;SDS011;1641;51.306;12.384;2024-02-04T12:20:36;3.80;;;3.40;;
3257;SDS011;1641;51.306;12.384;2024-02-04T12:23:02;7.93;;;4.47;;
3257;SDS011;1641;51.306;12.384;2024-02-04T12:25:31;6.60;;;4.47;;
3257;SDS011;1641;51.306;12.384;2024-02-04T12:28:06;8.70;;;5.85;;
3257;SDS011;1641;51.306;12.384;2024-02-04T12:30:36;4.78;;;4.28;;
3257;SDS011;1641;51.306;12.384;2024-02-04T12:33:17;4.38;;;3.63;;
3257;SDS011;1641;51.306;12.384;2024-02-04T12:35:49;5.07;;;4.13;;
3257;SDS011;1641;51.306;12.384;2024-02-04T12:38:19;3.65;;;3.30;;
3257;SDS011;1641;51.306;12.384;2024-02-04T12:40:44;5.72;;;3.40;;
3257;SDS011;1641;51.306;12.384;2024-02-04T12:43:10;4.72;;;3.58;;
3257;SDS011;1641;51.306;12.384;2024-02-04T12:45:48;16.90;;;8.73;;
3257;SDS011;1641;51.306;12.384;2024-02-04T12:48:14;7.72;;;3.92;;
3257;SDS011;1641;51.306;12.384;2024-02-04T12:50:41;4.03;;;3.25;;
3257;SDS011;1641;51.306;12.384;2024-02-04T12:53:07;4.50;;;3.33;;
3257;SDS011;1641;51.306;12.384;2024-02-04T12:55:40;2.85;;;2.47;;
3257;SDS011;1641;51.306;12.384;2024-02-04T12:58:11;5.00;;;3.40;;
3257;SDS011;1641;51.306;12.384;2024-02-04T13:00:45;7.03;;;3.95;;
3257;SDS011;1641;51.306;12.384;2024-02-04T13:03:14;6.03;;;3.58;;
3257;SDS011;1641;51.306;12.384;2024-02-04T13:05:47;3.95;;;3.15;;
3257;SDS011;1641;51.306;12.384;2024-02-04T13:08:18;4.88;;;3.50;;
3257;SDS011;1641;51.306;12.384;2024-02-04T13:13:22;3.35;;;2.33;;
3257;SDS011;1641;51.306;12.384;2024-02-04T13:15:57;3.55;;;2.90;;
3257;SDS011;1641;51.306;12.384;2024-02-04T13:18:22;4.78;;;2.83;;
3257;SDS011;1641;51.306;12.384;2024-02-04T13:20:51;5.38;;;2.67;;
3257;SDS011;1641;51.306;12.384;2024-02-04T13:23:19;3.58;;;2.45;;
3257;SDS011;1641;51.306;12.384;2024-02-04T13:25:46;3.85;;;2.78;;
3257;SDS011;1641;51.306;12.384;2024-02-04T13:28:12;2.55;;;2.28;;
3257;SDS011;1641;51.306;12.384;2024-02-04T13:30:37;5.32;;;2.58;;
3257;SDS011;1641;51.306;12.384;2024-02-04T13:33:03;3.25;;;2.38;;
3257;SDS011;1641;51.306;12.384;2024-02-04T13:35:28;4.10;;;2.72;;
3257;SDS011;1641;51.306;12.384;2024-02-04T13:37:53;4.72;;;3.83;;
3257;SDS011;1641;51.306;12.384;2024-02-04T13:40:21;3.15;;;2.75;;
3257;SDS011;1641;51.306;12.384;2024-02-04T13:42:48;4.88;;;2.97;;
3257;SDS011;1641;51.306;12.384;2024-02-04T13:45:13;4.93;;;2.55;;
3257;SDS011;1641;51.306;12.384;2024-02-04T13:47:39;6.07;;;3.55;;
3257;SDS011;1641;51.306;12.384;2024-02-04T13:50:05;2.30;;;1.98;;
3257;SDS011;1641;51.306;12.384;2024-02-04T13:52:32;3.53;;;2.60;;
3257;SDS011;1641;51.306;12.384;2024-02-04T13:54:57;6.90;;;2.42;;
3257;SDS011;1641;51.306;12.384;2024-02-04T13:57:23;2.88;;;2.42;;
3257;SDS011;1641;51.306;12.384;2024-02-04T13:59:48;4.22;;;3.15;;
3257;SDS011;1641;51.306;12.384;2024-02-04T14:02:13;3.13;;;2.80;;
3257;SDS011;1641;51.306;12.384;2024-02-04T14:04:38;4.05;;;2.47;;
3257;SDS011;1641;51.306;12.384;2024-02-04T14:07:04;6.07;;;2.63;;
3257;SDS011;1641;51.306;12.384;2024-02-04T14:09:29;3.35;;;2.30;;
3257;SDS011;1641;51.306;12.384;2024-02-04T14:11:54;4.22;;;2.95;;
3257;SDS011;1641;51.306;12.384;2024-02-04T14:14:20;3.47;;;1.92;;
3257;SDS011;1641;51.306;12.384;2024-02-04T14:16:47;3.45;;;2.60;;
3257;SDS011;1641;51.306;12.384;2024-02-04T14:19:12;5.30;;;2.80;;
3257;SDS011;1641;51.306;12.384;2024-02-04T14:21:38;7.30;;;3.30;;
3257;SDS011;1641;51.306;12.384;2024-02-04T14:24:04;3.00;;;2.30;;
3257;SDS011;1641;51.306;12.384;2024-02-04T14:26:30;4.72;;;2.42;;
3257;SDS011;1641;51.306;12.384;2024-02-04T14:28:56;3.63;;;2.58;;
3257;SDS011;1641;51.306;12.384;2024-02-04T14:31:21;2.58;;;1.95;;
3257;SDS011;1641;51.306;12.384;2024-02-04T14:33:46;4.53;;;1.83;;
3257;SDS011;1641;51.306;12.384;2024-02-04T14:36:12;2.15;;;1.90;;
3257;SDS011;1641;51.306;12.384;2024-02-04T14:38:37;3.95;;;2.10;;
3257;SDS011;1641;51.306;12.384;2024-02-04T14:41:03;1.77;;;1.65;;
3257;SDS011;1641;51.306;12.384;2024-02-04T14:43:29;3.42;;;1.90;;
3257;SDS011;1641;51.306;12.384;2024-02-04T14:45:54;3.50;;;2.25;;
3257;SDS011;1641;51.306;12.384;2024-02-04T14:48:20;3.22;;;1.63;;
3257;SDS011;1641;51.306;12.384;2024-02-04T14:50:45;3.25;;;2.10;;
3257;SDS011;1641;51.306;12.384;2024-02-04T14:53:12;3.58;;;2.40;;
3257;SDS011;1641;51.306;12.384;2024-02-04T14:55:37;6.57;;;2.42;;
3257;SDS011;1641;51.306;12.384;2024-02-04T14:58:05;2.20;;;1.90;;
3257;SDS011;1641;51.306;12.384;2024-02-04T15:00:31;3.25;;;2.03;;
3257;SDS011;1641;51.306;12.384;2024-02-04T15:02:57;2.78;;;2.00;;
3257;SDS011;1641;51.306;12.384;2024-02-04T15:05:25;3.35;;;2.00;;
3257;SDS011;1641;51.306;12.384;2024-02-04T15:07:51;1.95;;;1.73;;
3257;SDS011;1641;51.306;12.384;2024-02-04T15:10:17;2.42;;;2.15;;